Time;durP1;ratioP1;P1;durP2;ratioP2;P2;SDS_P1;SDS_P2;PMS_P1;PMS_P2;Temp;Humidity;BMP_temperature;BMP_pressure;BME280_temperature;BME280_humidity;BME280_pressure;Samples;Min_cycle;Max_cycle;Signal;HPM_P1;HPM_P2
2022/02/09 00:07:43;;;;;;;4.10;3.47;;;9.50;99.90;;;;;;5087123;28;20427;-40
2022/02/09 00:10:09;;;;;;;4.60;4.00;;;9.60;99.90;;;;;;5087518;28;20434;-40
2022/02/09 00:15:29;;;;;;;5.03;4.20;;;9.30;99.90;;;;;;5080549;28;20938;-40
2022/02/09 00:21:06;;;;;;;5.20;4.70;;;9.40;99.90;;;;;;5087707;28;20513;-40
2022/02/09 00:26:43;;;;;;;6.90;4.73;;;9.40;99.90;;;;;;5088187;28;20937;-40
2022/02/09 00:44:58;;;;;;;6.00;4.20;;;9.30;99.90;;;;;;5075368;28;20271;-40
2022/02/09 01:55:46;;;;;;;2.20;2.00;;;9.40;99.90;;;;;;5090925;28;20434;-41
2022/02/09 01:58:12;;;;;;;2.10;1.87;;;9.30;99.90;;;;;;5088293;28;20422;-40
2022/02/09 02:00:38;;;;;;;2.43;2.07;;;9.10;99.90;;;;;;5083334;28;20437;-40
2022/02/09 02:03:04;;;;;;;2.97;2.00;;;9.10;99.90;;;;;;5090635;28;20255;-40
2022/02/09 02:05:30;;;;;;;2.50;2.30;;;9.10;99.90;;;;;;5089989;28;20514;-40
2022/02/09 02:07:59;;;;;;;2.10;1.90;;;9.10;99.90;;;;;;5090382;28;20195;-40
2022/02/09 02:16:01;;;;;;;2.23;1.80;;;9.00;99.90;;;;;;5084681;28;20440;-40
2022/02/09 02:18:22;;;;;;;2.80;1.73;;;8.90;99.90;;;;;;5090224;28;20501;-40
2022/02/09 02:28:30;;;;;;;3.20;2.90;;;9.10;99.90;;;;;;5090362;28;20184;-40
2022/02/09 03:11:06;;;;;;;8.93;7.10;;;9.10;99.90;;;;;;5083786;28;20460;-42
2022/02/09 03:13:36;;;;;;;7.53;6.23;;;9.30;99.90;;;;;;5088879;28;20540;-41
2022/02/09 03:16:09;;;;;;;5.60;5.10;;;9.20;99.90;;;;;;5076749;28;20434;-43
2022/02/09 03:23:53;;;;;;;7.20;6.17;;;9.10;99.90;;;;;;5088969;28;20804;-40
2022/02/09 03:50:07;;;;;;;5.60;4.97;;;9.00;99.90;;;;;;5088778;28;20199;-41
2022/02/09 03:57:46;;;;;;;5.00;4.50;;;9.00;99.90;;;;;;5088439;28;20436;-40
2022/02/09 04:00:15;;;;;;;6.60;5.17;;;9.00;99.90;;;;;;5079642;28;20442;-39
2022/02/09 04:02:48;;;;;;;8.87;5.67;;;9.00;99.90;;;;;;5088370;28;20418;-40
2022/02/09 04:05:15;;;;;;;6.00;5.47;;;9.10;99.90;;;;;;5088476;28;21039;-41
2022/02/09 04:07:41;;;;;;;5.70;5.10;;;9.00;99.90;;;;;;5084478;28;20510;-43
2022/02/09 04:10:10;;;;;;;6.50;5.90;;;9.10;99.90;;;;;;5087794;28;20541;-40
2022/02/09 04:15:21;;;;;;;7.13;6.43;;;9.30;99.90;;;;;;5079257;28;20471;-40
2022/02/09 04:37:23;;;;;;;8.07;7.23;;;9.10;99.90;;;;;;5069555;28;20816;-40
2022/02/09 04:40:03;;;;;;;7.20;6.50;;;9.10;99.90;;;;;;5087081;28;20914;-42
2022/02/09 04:42:51;;;;;;;6.93;6.23;;;9.20;99.90;;;;;;5088175;28;20422;-41
2022/02/09 04:50:17;;;;;;;7.40;6.60;;;9.10;99.90;;;;;;5087125;28;20450;-40
2022/02/09 04:58:00;;;;;;;8.20;7.17;;;9.20;99.90;;;;;;5087790;28;20433;-40
2022/02/09 05:03:38;;;;;;;7.47;6.27;;;8.90;99.90;;;;;;5048103;28;20515;-40
2022/02/09 05:22:43;;;;;;;7.00;6.30;;;9.00;99.90;;;;;;5094150;28;20478;-40
2022/02/09 05:30:34;;;;;;;6.87;5.90;;;8.80;99.90;;;;;;5085368;28;20505;-41
2022/02/09 05:33:00;;;;;;;5.50;4.87;;;8.80;99.90;;;;;;5087772;28;20793;-40
2022/02/09 05:35:26;;;;;;;7.93;5.63;;;8.80;99.90;;;;;;5093949;28;20422;-41
2022/02/09 05:37:54;;;;;;;5.30;4.70;;;8.80;99.90;;;;;;5094329;28;20430;-40
2022/02/09 05:40:20;;;;;;;5.50;5.00;;;9.00;99.90;;;;;;5092456;28;20192;-40
2022/02/09 05:42:46;;;;;;;4.77;4.20;;;9.00;99.90;;;;;;5087778;28;20526;-40
2022/02/09 05:45:13;;;;;;;4.57;4.13;;;8.90;99.90;;;;;;5086781;28;20451;-39
2022/02/09 05:55:43;;;;;;;5.53;4.93;;;8.80;99.90;;;;;;5093759;28;20970;-41
2022/02/09 06:00:54;;;;;;;6.80;5.40;;;8.90;99.90;;;;;;5086082;28;20705;-40
2022/02/09 06:03:19;;;;;;;5.60;5.00;;;9.00;99.90;;;;;;5093176;28;20435;-40
2022/02/09 06:05:45;;;;;;;6.20;5.57;;;8.80;99.90;;;;;;5092391;28;20665;-43
2022/02/09 06:08:11;;;;;;;6.50;5.73;;;9.00;99.90;;;;;;5093629;28;20271;-41
2022/02/09 06:10:37;;;;;;;6.03;4.90;;;9.00;99.90;;;;;;5091662;28;20244;-41
2022/02/09 06:13:20;;;;;;;5.60;5.03;;;8.90;99.90;;;;;;5093600;28;20212;-41
2022/02/09 06:16:04;;;;;;;5.13;4.63;;;8.90;99.90;;;;;;5085764;28;20437;-41
2022/02/09 06:21:18;;;;;;;5.20;4.20;;;8.90;99.90;;;;;;5089991;28;20422;-45
2022/02/09 06:23:45;;;;;;;4.70;4.07;;;8.90;99.90;;;;;;5084838;28;20462;-41
2022/02/09 06:26:10;;;;;;;4.90;3.90;;;8.90;99.90;;;;;;5086690;28;20835;-42
2022/02/09 06:28:36;;;;;;;6.77;4.57;;;8.90;99.90;;;;;;5085275;28;20434;-43
2022/02/09 06:31:02;;;;;;;4.67;3.73;;;8.80;99.90;;;;;;5083765;28;20259;-41
2022/02/09 06:33:27;;;;;;;4.63;3.67;;;8.70;99.90;;;;;;5087278;28;20211;-43
2022/02/09 06:35:55;;;;;;;5.43;4.10;;;9.00;99.90;;;;;;5089753;28;20323;-40
2022/02/09 06:38:21;;;;;;;4.17;3.80;;;8.80;99.90;;;;;;5090171;28;20556;-40
2022/02/09 06:40:52;;;;;;;4.20;3.80;;;9.00;99.90;;;;;;5088562;28;20540;-40
2022/02/09 06:43:18;;;;;;;5.00;4.50;;;8.90;99.90;;;;;;5089627;28;20426;-44
2022/02/09 06:45:44;;;;;;;5.10;4.30;;;8.90;99.90;;;;;;5080967;28;20495;-40
2022/02/09 06:48:14;;;;;;;6.83;4.77;;;8.70;99.90;;;;;;5084147;28;20185;-41
2022/02/09 06:50:45;;;;;;;5.20;4.63;;;9.00;99.90;;;;;;5088174;28;20208;-40
2022/02/09 06:55:51;;;;;;;9.13;6.50;;;8.80;99.90;;;;;;5089580;28;20480;-43
2022/02/09 06:58:21;;;;;;;9.73;6.80;;;8.90;99.90;;;;;;5089786;28;20800;-43
2022/02/09 07:00:47;;;;;;;10.17;7.37;;;9.00;99.90;;;;;;5083382;28;20441;-41
2022/02/09 07:03:13;;;;;;;10.70;7.90;;;8.90;99.90;;;;;;5087173;28;20430;-41
2022/02/09 07:05:40;;;;;;;10.20;8.13;;;8.90;99.90;;;;;;5088064;28;20422;-41
2022/02/09 07:08:06;;;;;;;8.67;7.60;;;8.90;99.90;;;;;;5081864;28;20423;-41
2022/02/09 07:10:32;;;;;;;10.27;7.80;;;8.80;99.90;;;;;;5086138;28;20430;-40
2022/02/09 07:12:58;;;;;;;9.50;7.70;;;8.80;99.90;;;;;;5089451;28;20427;-42
2022/02/09 07:15:37;;;;;;;11.33;8.67;;;8.80;99.90;;;;;;5086713;28;20489;-39
2022/02/09 07:18:07;;;;;;;11.43;8.40;;;8.80;99.90;;;;;;5084109;28;20184;-43
2022/02/09 07:20:43;;;;;;;14.60;8.27;;;8.80;99.90;;;;;;5088724;28;20777;-41
2022/02/09 07:23:19;;;;;;;9.63;7.80;;;8.70;99.90;;;;;;5089473;28;20434;-40
2022/02/09 07:25:49;;;;;;;9.40;8.00;;;8.90;99.90;;;;;;5086526;28;20472;-41
2022/02/09 07:28:15;;;;;;;11.37;8.60;;;8.90;99.90;;;;;;5088899;28;20465;-42
2022/02/09 07:30:43;;;;;;;12.83;8.27;;;8.80;99.90;;;;;;5085374;28;20438;-41
2022/02/09 07:33:09;;;;;;;10.00;8.40;;;8.90;99.90;;;;;;5089248;28;20425;-41
2022/02/09 07:35:38;;;;;;;10.23;7.50;;;8.90;99.90;;;;;;5089020;28;20419;-40
2022/02/09 07:38:04;;;;;;;10.30;8.40;;;9.00;99.90;;;;;;5088464;28;20188;-45
2022/02/09 07:40:30;;;;;;;9.47;8.40;;;8.70;99.90;;;;;;5088246;28;21027;-40
2022/02/09 07:43:01;;;;;;;9.20;7.57;;;8.80;99.90;;;;;;5087142;28;20245;-40
2022/02/09 07:45:47;;;;;;;9.93;8.03;;;8.80;99.90;;;;;;5086080;28;20200;-40
2022/02/09 07:48:25;;;;;;;8.70;7.50;;;8.70;99.90;;;;;;5087188;28;20483;-41
2022/02/09 07:51:12;;;;;;;9.97;7.90;;;8.90;99.90;;;;;;5081541;28;20418;-42
2022/02/09 07:53:48;;;;;;;9.50;7.70;;;8.90;99.90;;;;;;5088719;28;20810;-42
2022/02/09 07:56:13;;;;;;;9.40;8.50;;;9.00;99.90;;;;;;5088633;28;20450;-40
2022/02/09 07:58:39;;;;;;;9.23;8.17;;;9.10;99.90;;;;;;5088534;28;20445;-41
2022/02/09 08:01:05;;;;;;;9.60;8.47;;;9.00;99.90;;;;;;5082915;28;20951;-41
2022/02/09 08:03:31;;;;;;;9.47;7.37;;;9.00;99.90;;;;;;5079621;28;20198;-42
2022/02/09 08:05:57;;;;;;;12.57;9.07;;;9.10;99.90;;;;;;5086724;28;20192;-40
2022/02/09 08:08:28;;;;;;;10.17;7.60;;;9.00;99.90;;;;;;5087020;28;20481;-42
2022/02/09 08:10:58;;;;;;;12.30;7.90;;;9.10;99.90;;;;;;5087503;28;20191;-40
2022/02/09 08:23:35;;;;;;;10.87;8.90;;;8.90;99.90;;;;;;5087412;28;20446;-40
2022/02/09 08:34:55;;;;;;;11.40;8.87;;;9.20;99.90;;;;;;5087190;28;20749;-45
2022/02/09 08:37:20;;;;;;;10.33;8.60;;;9.10;99.90;;;;;;5087863;28;20473;-41
2022/02/09 08:39:48;;;;;;;10.30;9.07;;;9.20;99.90;;;;;;5087225;28;20909;-40
2022/02/09 08:42:15;;;;;;;9.63;8.40;;;9.10;99.90;;;;;;5087869;28;20218;-42
2022/02/09 08:44:40;;;;;;;10.63;8.80;;;9.30;99.90;;;;;;5087472;28;20422;-41
2022/02/09 08:47:07;;;;;;;8.37;7.20;;;9.30;99.90;;;;;;5077542;28;20499;-42
2022/02/09 08:49:33;;;;;;;9.80;8.70;;;9.40;99.90;;;;;;5085672;28;20200;-43
2022/02/09 08:51:59;;;;;;;9.57;8.03;;;9.20;99.90;;;;;;5087628;28;20423;-41
2022/02/09 08:54:26;;;;;;;9.77;7.70;;;9.20;99.90;;;;;;5086920;28;20462;-44
2022/02/09 08:56:55;;;;;;;9.27;7.70;;;9.20;99.90;;;;;;5086708;28;20457;-41
2022/02/09 08:59:27;;;;;;;8.63;7.10;;;9.40;99.90;;;;;;5087388;28;20562;-43
2022/02/09 09:02:04;;;;;;;10.30;7.40;;;9.30;99.90;;;;;;5079842;28;20816;-40
2022/02/09 09:04:34;;;;;;;8.60;6.70;;;9.20;99.90;;;;;;5085902;28;20556;-42
2022/02/09 09:07:06;;;;;;;9.27;7.60;;;9.10;99.90;;;;;;5086103;28;20430;-40
2022/02/09 10:35:31;;;;;;;3.13;2.70;;;10.00;99.90;;;;;;5086456;28;20982;-42
2022/02/09 10:38:01;;;;;;;2.93;2.03;;;10.10;99.90;;;;;;5090264;28;20426;-40
2022/02/09 10:40:27;;;;;;;5.40;2.63;;;10.20;99.90;;;;;;5089398;28;20430;-40
2022/02/09 10:42:59;;;;;;;2.60;2.33;;;10.20;99.90;;;;;;5090287;28;20606;-40
2022/02/09 10:45:31;;;;;;;2.97;2.67;;;10.20;99.90;;;;;;5090010;28;20529;-41
2022/02/09 10:47:58;;;;;;;3.63;2.97;;;10.10;99.90;;;;;;5078822;28;21008;-40
2022/02/09 10:52:57;;;;;;;4.47;3.23;;;10.40;99.90;;;;;;5090083;28;20537;-42
2022/02/09 10:55:42;;;;;;;3.70;3.23;;;10.30;99.90;;;;;;5089508;28;20523;-41
2022/02/09 10:58:14;;;;;;;4.17;3.40;;;10.20;99.90;;;;;;5089873;28;20735;-43
2022/02/09 11:00:43;;;;;;;4.03;3.10;;;10.40;99.90;;;;;;5089400;28;20421;-44
2022/02/09 11:03:20;;;;;;;3.93;3.20;;;10.40;99.90;;;;;;5076440;28;20428;-42
2022/02/09 11:05:50;;;;;;;3.40;3.10;;;10.40;99.90;;;;;;5086291;28;20467;-41
2022/02/09 11:08:17;;;;;;;5.03;3.47;;;10.40;99.90;;;;;;5083237;28;20832;-42
2022/02/09 11:10:44;;;;;;;3.77;3.30;;;10.30;99.90;;;;;;5088837;28;20765;-40
2022/02/09 11:13:11;;;;;;;4.40;3.70;;;10.30;99.90;;;;;;5089732;28;20496;-40
2022/02/09 11:15:39;;;;;;;4.50;4.03;;;10.40;99.90;;;;;;5089312;28;20534;-41
2022/02/09 11:18:08;;;;;;;4.80;3.10;;;10.30;99.90;;;;;;5079080;28;20502;-41
2022/02/09 11:21:05;;;;;;;4.27;3.20;;;10.30;99.90;;;;;;5085446;28;20798;-40
2022/02/09 11:23:57;;;;;;;4.53;3.70;;;10.40;99.90;;;;;;5088898;28;20889;-40
2022/02/09 11:27:01;;;;;;;5.47;3.77;;;10.40;99.90;;;;;;5087265;28;20796;-40
2022/02/09 11:32:14;;;;;;;5.27;4.03;;;10.50;99.90;;;;;;5084850;28;20961;-40
2022/02/09 11:34:48;;;;;;;5.17;4.13;;;10.60;99.90;;;;;;5085510;28;20457;-40
2022/02/09 11:37:23;;;;;;;5.60;4.57;;;10.60;99.90;;;;;;5084717;28;20410;-41
2022/02/09 11:39:52;;;;;;;4.73;4.13;;;10.50;99.90;;;;;;5088385;28;20421;-40
2022/02/09 11:42:26;;;;;;;5.80;4.80;;;10.40;99.90;;;;;;5088733;28;20473;-40
2022/02/09 11:48:15;;;;;;;6.57;4.13;;;10.50;99.90;;;;;;5082887;28;20432;-41
2022/02/09 11:50:59;;;;;;;6.40;4.87;;;10.70;99.90;;;;;;5085071;28;20760;-40
2022/02/09 11:59:12;;;;;;;6.60;4.00;;;10.40;99.90;;;;;;5088772;28;20445;-42
2022/02/09 12:10:11;;;;;;;7.50;4.40;;;10.30;99.90;;;;;;5088376;28;20418;-41
2022/02/09 12:12:46;;;;;;;4.93;4.10;;;10.10;99.90;;;;;;5088160;28;20433;-40
2022/02/09 12:18:36;;;;;;;5.23;4.00;;;9.90;99.90;;;;;;5061099;28;20435;-41
2022/02/09 12:21:15;;;;;;;7.83;4.33;;;9.90;99.90;;;;;;5087908;28;21025;-42
2022/02/09 12:23:44;;;;;;;5.20;3.73;;;10.10;99.90;;;;;;5084922;28;20483;-40
2022/02/09 12:26:12;;;;;;;5.13;4.40;;;10.00;99.90;;;;;;5088291;28;20444;-40
2022/02/09 12:28:40;;;;;;;5.87;4.53;;;9.90;99.90;;;;;;5085833;28;20426;-40
2022/02/09 12:31:11;;;;;;;5.60;3.93;;;10.10;99.90;;;;;;5087789;28;20459;-47
2022/02/09 12:33:47;;;;;;;6.30;4.67;;;9.80;99.90;;;;;;5079770;28;20766;-41
2022/02/09 12:36:17;;;;;;;6.03;4.27;;;9.90;99.90;;;;;;5088195;28;20449;-40
2022/02/09 12:38:44;;;;;;;6.10;4.47;;;10.00;99.90;;;;;;5075113;28;20450;-40
2022/02/09 12:41:12;;;;;;;5.37;4.27;;;9.90;99.90;;;;;;5087088;28;20415;-44
2022/02/09 12:43:58;;;;;;;5.17;4.30;;;10.10;99.90;;;;;;5088045;28;20429;-42
2022/02/09 12:46:31;;;;;;;5.93;4.10;;;10.10;99.90;;;;;;5087719;28;20586;-44
2022/02/09 12:49:14;;;;;;;8.10;3.60;;;10.00;99.90;;;;;;5081595;28;20441;-43
2022/02/09 12:51:43;;;;;;;4.93;4.00;;;10.00;99.90;;;;;;5085935;28;20779;-40
2022/02/09 12:54:11;;;;;;;4.70;3.87;;;10.00;99.90;;;;;;5087565;28;20446;-41
2022/02/09 12:56:42;;;;;;;4.40;4.00;;;10.10;99.90;;;;;;5087633;28;20442;-42
2022/02/09 12:59:19;;;;;;;7.00;4.27;;;10.00;99.90;;;;;;5087750;28;21045;-43
2022/02/09 13:01:53;;;;;;;6.03;4.37;;;9.90;99.90;;;;;;5087459;28;20418;-43
2022/02/09 13:04:33;;;;;;;4.97;3.63;;;10.00;99.90;;;;;;5077700;28;20437;-41
2022/02/09 13:07:00;;;;;;;4.73;4.23;;;10.00;99.90;;;;;;5086807;28;20422;-42
2022/02/09 13:09:27;;;;;;;4.40;4.00;;;10.10;99.90;;;;;;5072539;28;20945;-41
2022/02/09 13:11:53;;;;;;;5.90;4.37;;;10.20;99.90;;;;;;5087230;28;20452;-46
2022/02/09 13:14:30;;;;;;;4.73;4.23;;;10.10;99.90;;;;;;5086294;28;20486;-42
2022/02/09 14:51:13;;;;;;;4.80;3.17;;;10.30;99.90;;;;;;5049785;28;20479;-43
2022/02/09 14:58:31;;;;;;;4.70;2.90;;;10.40;99.90;;;;;;5090260;28;20423;-43
2022/02/09 15:08:57;;;;;;;4.53;3.30;;;10.30;99.90;;;;;;5084376;28;20430;-41
2022/02/09 15:14:30;;;;;;;4.03;2.97;;;10.50;99.90;;;;;;5051972;28;20482;-40
2022/02/09 15:17:24;;;;;;;4.17;2.90;;;10.30;99.90;;;;;;5089236;28;20430;-43
2022/02/09 15:22:23;;;;;;;3.50;2.77;;;10.40;99.90;;;;;;5088191;28;20820;-44
2022/02/09 15:24:50;;;;;;;3.13;2.60;;;10.40;99.90;;;;;;5089248;28;20438;-40
2022/02/09 15:27:21;;;;;;;2.83;2.40;;;10.50;99.90;;;;;;5089062;28;20687;-40
2022/02/09 15:29:49;;;;;;;3.47;2.77;;;10.40;99.90;;;;;;5088999;28;20908;-40
2022/02/09 15:34:56;;;;;;;5.70;2.90;;;10.40;99.90;;;;;;5079660;28;20466;-45
2022/02/09 15:38:11;;;;;;;4.43;2.73;;;10.60;99.90;;;;;;5086202;28;20430;-43
2022/02/09 15:40:22;;;;;;;2.90;2.40;;;10.30;99.90;;;;;;5082627;28;20526;-46
2022/02/09 15:43:07;;;;;;;5.57;2.33;;;10.40;99.90;;;;;;5088904;28;20429;-40
2022/02/09 16:23:24;;;;;;;5.37;3.33;;;10.30;99.90;;;;;;5086863;28;20509;-40
2022/02/09 16:33:13;;;;;;;14.50;7.10;;;10.30;99.90;;;;;;5084877;28;20263;-40
2022/02/09 16:44:50;;;;;;;2.67;2.07;;;10.50;99.90;;;;;;5086778;28;20530;-41
2022/02/09 16:48:03;;;;;;;2.03;1.83;;;10.80;99.90;;;;;;5084835;28;20512;-42
2022/02/09 16:50:08;;;;;;;2.30;2.07;;;11.00;99.90;;;;;;5064492;28;20210;-43
2022/02/09 17:11:10;;;;;;;4.20;1.83;;;14.30;99.90;;;;;;5083817;28;20480;-45
2022/02/09 17:19:25;;;;;;;2.20;1.73;;;17.30;99.90;;;;;;5079318;28;21498;-42
2022/02/09 17:21:51;;;;;;;3.83;1.87;;;18.00;98.90;;;;;;5083838;28;20459;-43
2022/02/09 17:24:17;;;;;;;2.00;1.60;;;18.60;97.80;;;;;;5085362;28;20249;-41
2022/02/09 17:26:43;;;;;;;3.37;1.70;;;19.10;96.70;;;;;;5085030;28;20634;-45
2022/02/09 17:29:09;;;;;;;3.13;1.93;;;19.30;95.50;;;;;;5084841;28;20188;-43
2022/02/09 17:55:48;;;;;;;6.03;2.73;;;21.30;89.70;;;;;;5085550;28;20472;-43
2022/02/09 17:58:17;;;;;;;2.77;2.40;;;21.20;89.70;;;;;;5084652;28;20600;-48
2022/02/09 18:00:44;;;;;;;3.00;2.70;;;21.00;90.00;;;;;;5085535;28;20441;-42
2022/02/09 18:03:15;;;;;;;3.50;2.90;;;20.90;90.10;;;;;;5085007;28;20469;-43
2022/02/09 18:05:50;;;;;;;3.23;2.87;;;20.70;90.30;;;;;;5077081;28;20488;-44
2022/02/09 18:08:21;;;;;;;4.17;2.93;;;20.60;90.40;;;;;;5085957;28;20499;-42
2022/02/09 18:11:15;;;;;;;5.03;2.70;;;20.40;90.40;;;;;;5086550;28;20882;-41
2022/02/09 19:01:32;;;;;;;6.43;4.20;;;18.50;92.80;;;;;;5089535;28;20418;-41
2022/02/09 19:03:57;;;;;;;5.23;4.70;;;18.70;92.90;;;;;;5090145;28;20613;-44
2022/02/09 19:07:09;;;;;;;4.53;4.13;;;18.80;92.60;;;;;;5080919;28;20881;-41
2022/02/09 19:28:32;;;;;;;4.37;3.93;;;17.70;93.00;;;;;;5089431;28;20421;-42
2022/02/09 19:30:47;;;;;;;4.50;4.07;;;17.50;93.80;;;;;;5088674;28;20445;-40
2022/02/09 19:48:51;;;;;;;5.30;4.83;;;16.20;96.10;;;;;;5088210;28;20792;-40
2022/02/09 19:56:50;;;;;;;4.17;3.77;;;15.60;97.10;;;;;;5086701;28;20817;-41
2022/02/09 19:59:18;;;;;;;4.30;3.90;;;15.50;97.80;;;;;;5088619;28;20514;-41
2022/02/09 20:01:45;;;;;;;4.50;4.10;;;15.30;98.50;;;;;;5087695;28;20421;-42
2022/02/09 20:04:11;;;;;;;6.13;4.70;;;15.20;99.10;;;;;;5088689;28;20655;-42
2022/02/09 20:06:37;;;;;;;5.13;4.60;;;15.00;99.80;;;;;;5074169;28;20438;-40
2022/02/09 20:09:04;;;;;;;5.20;4.80;;;15.00;99.90;;;;;;5086340;28;20522;-43
2022/02/09 20:11:30;;;;;;;5.77;5.27;;;15.00;99.90;;;;;;5086748;28;20426;-42
2022/02/09 20:13:55;;;;;;;8.80;7.53;;;15.10;99.90;;;;;;5082209;28;20462;-42
2022/02/09 20:16:23;;;;;;;6.00;5.40;;;15.00;99.30;;;;;;5081791;28;20209;-44
2022/02/09 20:18:51;;;;;;;6.80;6.10;;;15.10;99.90;;;;;;5087889;28;21320;-40
2022/02/09 20:21:18;;;;;;;6.00;5.40;;;15.10;99.70;;;;;;5080257;28;20432;-43
2022/02/09 20:23:44;;;;;;;6.80;6.20;;;15.10;99.60;;;;;;5082562;28;20912;-41
2022/02/09 20:26:12;;;;;;;7.30;6.53;;;15.20;99.50;;;;;;5087835;28;20414;-45
2022/02/09 20:28:42;;;;;;;7.37;6.67;;;15.10;99.60;;;;;;5087791;28;20434;-42
2022/02/09 20:31:13;;;;;;;8.53;6.13;;;15.00;99.60;;;;;;5085452;28;20909;-41
2022/02/09 20:33:54;;;;;;;8.33;6.10;;;14.90;99.80;;;;;;5087073;28;20414;-41
2022/02/09 20:36:19;;;;;;;6.47;5.87;;;14.90;99.90;;;;;;5083125;28;20488;-40
2022/02/09 20:38:50;;;;;;;9.60;6.47;;;14.70;99.90;;;;;;5082328;28;20447;-42
2022/02/09 20:41:18;;;;;;;8.53;5.60;;;14.70;99.90;;;;;;5084223;28;20231;-44
2022/02/09 20:43:57;;;;;;;7.40;6.30;;;14.60;99.90;;;;;;5074016;28;20515;-41
2022/02/09 20:46:25;;;;;;;6.83;6.20;;;14.60;99.90;;;;;;5086746;28;20426;-44
2022/02/09 20:48:51;;;;;;;7.47;6.47;;;14.60;99.90;;;;;;5085800;28;20467;-42
2022/02/09 20:51:17;;;;;;;7.07;5.60;;;14.70;99.90;;;;;;5076980;28;20474;-43
2022/02/09 20:53:42;;;;;;;6.10;5.43;;;14.90;99.90;;;;;;5086042;28;20204;-41
2022/02/09 20:56:08;;;;;;;6.50;4.90;;;15.00;99.90;;;;;;5086006;28;20717;-41
2022/02/09 20:58:36;;;;;;;5.37;4.67;;;15.20;99.90;;;;;;5086933;28;20184;-43
2022/02/09 21:01:08;;;;;;;8.93;5.57;;;15.30;99.80;;;;;;5085266;28;20569;-42
2022/02/09 21:32:32;;;;;;;5.57;5.07;;;15.60;99.20;;;;;;5085507;28;20422;-40
2022/02/09 21:54:01;;;;;;;5.70;4.93;;;14.70;99.90;;;;;;5077828;28;20480;-41
2022/02/09 21:56:34;;;;;;;5.40;4.90;;;14.70;99.90;;;;;;5086139;28;20618;-42
2022/02/09 22:21:08;;;;;;;6.23;5.60;;;14.00;99.90;;;;;;5086640;28;20433;-41
2022/02/09 22:29:39;;;;;;;7.10;5.07;;;13.80;99.90;;;;;;5067619;28;20528;-44
2022/02/09 22:50:45;;;;;;;7.40;5.50;;;13.20;99.90;;;;;;5046255;28;20531;-41
2022/02/09 22:55:56;;;;;;;6.67;5.47;;;13.10;99.90;;;;;;5083885;28;21044;-43
2022/02/09 22:58:22;;;;;;;12.33;5.87;;;13.10;99.90;;;;;;5089971;28;20453;-44
